Time;durP1;ratioP1;P1;durP2;ratioP2;P2;SDS_P1;SDS_P2;PMS_P1;PMS_P2;Temp;Humidity;BMP_temperature;BMP_pressure;BME280_temperature;BME280_humidity;BME280_pressure;Samples;Min_cycle;Max_cycle;Signal;HPM_P1;HPM_P2
2022/07/04 00:00:44;;;;;;;8.68;6.30;;;13.60;99.90;;;;;;5035164;28;20047;-75
2022/07/04 00:03:10;;;;;;;8.00;6.45;;;13.60;99.90;;;;;;5035525;28;20032;-76
2022/07/04 00:05:35;;;;;;;8.68;5.40;;;13.50;99.90;;;;;;5035701;28;20084;-76
2022/07/04 00:08:01;;;;;;;10.70;6.50;;;13.60;99.90;;;;;;5035192;28;20033;-76
2022/07/04 00:10:27;;;;;;;7.60;5.90;;;13.50;99.90;;;;;;5035146;28;20041;-75
2022/07/04 00:12:52;;;;;;;8.93;5.78;;;13.50;99.90;;;;;;5035218;28;20068;-75
2022/07/04 00:15:18;;;;;;;12.27;6.22;;;13.50;99.90;;;;;;5035528;28;20102;-76
2022/07/04 00:17:44;;;;;;;14.00;7.18;;;13.50;99.90;;;;;;5035325;28;20052;-76
2022/07/04 00:20:10;;;;;;;13.82;6.43;;;13.50;99.90;;;;;;5034969;28;20044;-76
2022/07/04 00:22:36;;;;;;;7.80;5.80;;;13.50;99.90;;;;;;5035200;28;20048;-76
2022/07/04 00:25:03;;;;;;;12.23;6.70;;;13.40;99.90;;;;;;5035189;28;20373;-76
2022/07/04 00:27:28;;;;;;;9.65;6.72;;;13.40;99.90;;;;;;5034867;28;20120;-76
2022/07/04 00:29:54;;;;;;;13.05;7.32;;;13.40;99.90;;;;;;5034800;28;20124;-76
2022/07/04 00:32:20;;;;;;;8.60;6.47;;;13.40;99.90;;;;;;5035323;28;20043;-76
2022/07/04 00:34:45;;;;;;;7.80;6.30;;;13.30;99.90;;;;;;5052021;28;20053;-76
2022/07/04 00:37:11;;;;;;;9.10;6.72;;;13.30;99.90;;;;;;5053768;28;20048;-75
2022/07/04 00:39:36;;;;;;;9.68;6.07;;;13.30;99.90;;;;;;5039857;28;20060;-76
2022/07/04 00:42:03;;;;;;;9.55;6.50;;;13.30;99.90;;;;;;5053064;28;20534;-76
2022/07/04 00:44:29;;;;;;;7.25;5.80;;;13.30;99.90;;;;;;5033935;28;20045;-76
2022/07/04 00:46:55;;;;;;;7.32;6.53;;;13.30;99.90;;;;;;5052605;28;20041;-74
2022/07/04 00:49:20;;;;;;;10.18;6.88;;;13.30;99.90;;;;;;5034962;28;20099;-74
2022/07/04 00:51:47;;;;;;;8.98;5.70;;;13.20;99.90;;;;;;5034843;28;20451;-74
2022/07/04 00:54:15;;;;;;;7.30;5.97;;;13.10;99.90;;;;;;5035042;28;20052;-74
2022/07/04 00:56:43;;;;;;;7.57;5.70;;;13.20;99.90;;;;;;5034600;28;20128;-74
2022/07/04 00:59:09;;;;;;;7.07;4.70;;;13.20;99.90;;;;;;5034608;28;20086;-74
2022/07/04 01:01:35;;;;;;;8.32;6.00;;;13.10;99.90;;;;;;5034532;28;20052;-74
2022/07/04 01:04:03;;;;;;;7.72;5.28;;;13.10;99.90;;;;;;5034329;28;20123;-74
2022/07/04 01:06:29;;;;;;;9.20;6.03;;;13.10;99.90;;;;;;5034171;28;20128;-74
2022/07/04 01:08:55;;;;;;;7.70;5.30;;;13.10;99.90;;;;;;5034347;28;20064;-74
2022/07/04 01:11:21;;;;;;;8.05;5.93;;;13.00;99.90;;;;;;5034202;28;20087;-74
2022/07/04 01:13:46;;;;;;;7.80;6.10;;;13.10;99.90;;;;;;5034452;28;20555;-74
2022/07/04 01:16:12;;;;;;;11.65;5.80;;;13.00;99.90;;;;;;5034166;28;20056;-75
2022/07/04 01:18:38;;;;;;;8.80;6.32;;;13.10;99.90;;;;;;5034086;28;20079;-74
2022/07/04 01:21:05;;;;;;;9.63;6.55;;;13.10;99.90;;;;;;5017268;28;20037;-74
2022/07/04 01:23:31;;;;;;;12.93;5.82;;;13.00;99.90;;;;;;5033966;28;20468;-75
2022/07/04 01:25:57;;;;;;;11.57;7.20;;;13.00;99.90;;;;;;5033720;28;20076;-76
2022/07/04 01:28:24;;;;;;;9.20;6.05;;;13.00;99.90;;;;;;5033745;28;20069;-74
2022/07/04 01:30:50;;;;;;;9.15;5.88;;;13.00;99.90;;;;;;5033594;28;20041;-74
2022/07/04 01:33:19;;;;;;;7.57;5.75;;;13.00;99.90;;;;;;5033794;28;20095;-76
2022/07/04 01:35:46;;;;;;;8.30;6.18;;;12.80;99.90;;;;;;5033738;28;20393;-76
2022/07/04 01:38:11;;;;;;;8.45;6.60;;;12.90;99.90;;;;;;5051347;28;20112;-76
2022/07/04 01:40:37;;;;;;;7.28;5.63;;;12.90;99.90;;;;;;5033698;28;20191;-75
2022/07/04 01:43:02;;;;;;;8.40;5.53;;;12.80;99.90;;;;;;5033222;28;20109;-76
2022/07/04 01:45:28;;;;;;;7.63;6.07;;;12.80;99.90;;;;;;5033761;28;20044;-76
2022/07/04 01:47:54;;;;;;;9.20;5.57;;;12.80;99.90;;;;;;5033441;28;20072;-76
2022/07/04 01:50:20;;;;;;;11.35;6.32;;;12.80;99.90;;;;;;5033361;28;20093;-76
2022/07/04 01:52:46;;;;;;;10.30;6.53;;;12.80;99.90;;;;;;5033313;28;20408;-77
2022/07/04 01:55:13;;;;;;;8.82;6.38;;;12.80;99.90;;;;;;5051001;28;20037;-77
2022/07/04 01:57:39;;;;;;;10.68;6.50;;;12.80;99.90;;;;;;5033158;28;20049;-77
2022/07/04 02:02:51;;;;;;;6.88;5.20;;;12.80;99.90;;;;;;5033305;28;20052;-77
2022/07/04 02:05:17;;;;;;;8.57;5.68;;;12.80;99.90;;;;;;5033364;28;20037;-77
2022/07/04 02:07:43;;;;;;;11.73;6.43;;;12.80;99.90;;;;;;5033162;28;20041;-77
2022/07/04 02:10:10;;;;;;;10.77;5.70;;;12.80;99.90;;;;;;5033070;28;20037;-76
2022/07/04 02:15:19;;;;;;;14.07;5.70;;;12.80;99.90;;;;;;5033094;28;20597;-76
2022/07/04 02:17:45;;;;;;;10.25;5.82;;;12.80;99.90;;;;;;5032974;28;20087;-77
2022/07/04 02:20:11;;;;;;;8.38;6.03;;;12.90;99.90;;;;;;5032837;28;20099;-77
2022/07/04 02:22:37;;;;;;;13.02;6.18;;;12.90;99.90;;;;;;5033138;28;20048;-76
2022/07/04 02:25:03;;;;;;;8.95;5.80;;;12.90;99.90;;;;;;5032983;28;20128;-76
2022/07/04 02:27:28;;;;;;;9.45;6.10;;;12.80;99.90;;;;;;5016476;28;20045;-75
2022/07/04 02:29:54;;;;;;;11.70;6.45;;;12.90;99.90;;;;;;5032492;28;20431;-75
2022/07/04 02:32:20;;;;;;;11.60;6.25;;;12.80;99.90;;;;;;5033156;28;20583;-75
2022/07/04 02:34:45;;;;;;;13.13;6.95;;;12.90;99.90;;;;;;5032813;28;20033;-75
2022/07/04 02:37:11;;;;;;;8.65;5.90;;;12.90;99.90;;;;;;5033010;28;20103;-76
2022/07/04 02:39:36;;;;;;;14.52;6.03;;;12.90;99.90;;;;;;5032675;28;20056;-76
2022/07/04 02:42:02;;;;;;;13.10;5.85;;;12.80;99.90;;;;;;5033339;28;20122;-75
2022/07/04 02:44:28;;;;;;;14.25;6.57;;;12.80;99.90;;;;;;5033013;28;20041;-75
2022/07/04 02:46:54;;;;;;;12.13;6.13;;;12.80;99.90;;;;;;5032723;28;20088;-77
2022/07/04 02:49:20;;;;;;;8.00;6.30;;;12.90;99.90;;;;;;5032963;28;20420;-77
2022/07/04 02:51:45;;;;;;;8.40;5.90;;;12.80;99.90;;;;;;5032732;28;20076;-76
2022/07/04 02:54:11;;;;;;;11.27;6.22;;;12.80;99.90;;;;;;5050701;28;20764;-76
2022/07/04 02:56:37;;;;;;;12.32;6.28;;;12.80;99.90;;;;;;5050341;28;20045;-77
2022/07/04 02:59:02;;;;;;;7.63;5.72;;;12.80;99.90;;;;;;5050589;28;20106;-77
2022/07/04 03:01:28;;;;;;;8.35;5.63;;;12.70;99.90;;;;;;5032864;28;20433;-76
2022/07/04 03:03:54;;;;;;;14.48;6.55;;;12.80;99.90;;;;;;5032905;28;20036;-76
2022/07/04 03:06:19;;;;;;;12.07;6.65;;;12.70;99.90;;;;;;5032629;28;20040;-76
2022/07/04 03:08:45;;;;;;;10.45;5.88;;;12.80;99.90;;;;;;5053639;28;20094;-77
2022/07/04 03:11:11;;;;;;;10.88;6.15;;;12.80;99.90;;;;;;5054394;28;20041;-77
2022/07/04 03:13:38;;;;;;;10.43;5.85;;;12.80;99.90;;;;;;5036489;28;20480;-77
2022/07/04 03:16:04;;;;;;;9.23;6.10;;;12.80;99.90;;;;;;5036205;28;20052;-76
2022/07/04 03:18:30;;;;;;;7.45;5.60;;;12.80;99.90;;;;;;5036668;28;20045;-76
2022/07/04 03:20:56;;;;;;;11.88;6.45;;;12.80;99.90;;;;;;5054026;28;20041;-76
2022/07/04 03:23:22;;;;;;;12.52;6.43;;;12.80;99.90;;;;;;5036070;28;20037;-77
2022/07/04 03:25:47;;;;;;;13.40;8.23;;;12.70;99.90;;;;;;5036302;28;20055;-77
2022/07/04 03:28:13;;;;;;;14.65;7.50;;;12.80;99.90;;;;;;5036232;28;20045;-76
2022/07/04 03:30:38;;;;;;;12.38;7.97;;;12.80;99.90;;;;;;5036074;28;20040;-76
2022/07/04 03:33:04;;;;;;;10.98;7.57;;;12.80;99.90;;;;;;5036136;28;20037;-76
2022/07/04 03:35:29;;;;;;;11.75;7.03;;;12.80;99.90;;;;;;5036511;28;20088;-76
2022/07/04 03:37:55;;;;;;;12.80;7.72;;;12.80;99.90;;;;;;5036129;28;20047;-76
2022/07/04 03:40:21;;;;;;;11.50;7.63;;;12.70;99.90;;;;;;5035624;28;20044;-76
2022/07/04 03:42:47;;;;;;;12.52;7.55;;;12.70;99.90;;;;;;5036230;28;20037;-77
2022/07/04 03:45:13;;;;;;;13.10;8.23;;;12.80;99.90;;;;;;5036181;28;20045;-76
2022/07/04 03:47:39;;;;;;;12.20;8.23;;;12.70;99.90;;;;;;5035794;28;20478;-76
2022/07/04 03:50:05;;;;;;;12.93;7.60;;;12.90;99.90;;;;;;5035548;28;20084;-77
2022/07/04 03:52:31;;;;;;;16.92;9.02;;;12.80;99.90;;;;;;5035839;28;20500;-77
2022/07/04 03:54:57;;;;;;;12.52;8.82;;;12.70;99.90;;;;;;5035991;28;20048;-77
2022/07/04 03:57:22;;;;;;;15.57;9.50;;;12.80;99.90;;;;;;5035827;28;20482;-77
2022/07/04 03:59:48;;;;;;;13.93;8.15;;;12.80;99.90;;;;;;5035740;28;20051;-77
2022/07/04 04:02:14;;;;;;;11.57;7.60;;;12.80;99.90;;;;;;5036087;28;20416;-76
2022/07/04 04:07:24;;;;;;;10.35;7.40;;;12.80;99.90;;;;;;5035507;28;20099;-76
2022/07/04 04:09:49;;;;;;;13.18;7.40;;;12.90;99.90;;;;;;5035627;28;20049;-76
2022/07/04 04:12:15;;;;;;;16.23;8.07;;;12.90;99.90;;;;;;5036005;28;20476;-77
2022/07/04 04:14:41;;;;;;;12.82;6.65;;;13.00;99.90;;;;;;5035673;28;20119;-76
2022/07/04 04:17:06;;;;;;;13.15;6.90;;;13.00;99.90;;;;;;5035630;28;20033;-78
2022/07/04 04:19:33;;;;;;;11.25;6.80;;;13.10;99.90;;;;;;5035359;28;20044;-76
2022/07/04 04:21:59;;;;;;;13.77;7.13;;;13.10;99.90;;;;;;5053207;28;20484;-77
2022/07/04 04:24:24;;;;;;;11.02;6.57;;;13.20;99.90;;;;;;5035522;28;20045;-76
2022/07/04 04:26:50;;;;;;;9.00;6.22;;;13.20;99.90;;;;;;5035309;28;20075;-76
2022/07/04 04:29:16;;;;;;;12.55;6.65;;;13.30;99.90;;;;;;5035460;28;20033;-76
2022/07/04 04:31:41;;;;;;;10.35;5.95;;;13.30;99.90;;;;;;5035119;28;20072;-77
2022/07/04 04:34:07;;;;;;;8.43;5.50;;;13.40;99.90;;;;;;5035076;28;20051;-77
2022/07/04 04:36:33;;;;;;;10.32;5.97;;;13.50;99.90;;;;;;5035143;28;20506;-76
2022/07/04 04:38:58;;;;;;;9.35;5.55;;;13.50;99.90;;;;;;5035290;28;20041;-76
2022/07/04 04:41:24;;;;;;;10.35;5.60;;;13.60;99.90;;;;;;5034969;28;20128;-76
2022/07/04 04:43:50;;;;;;;10.88;5.90;;;13.70;99.90;;;;;;5035148;28;20512;-77
2022/07/04 04:46:15;;;;;;;11.80;5.97;;;13.80;99.90;;;;;;5034759;28;20041;-76
2022/07/04 04:48:41;;;;;;;11.45;5.22;;;13.90;99.90;;;;;;5034929;28;20044;-76
2022/07/04 04:51:07;;;;;;;11.40;6.18;;;14.10;99.90;;;;;;5034504;28;20045;-76
2022/07/04 04:53:32;;;;;;;11.75;6.43;;;14.20;99.90;;;;;;5034981;28;20120;-77
2022/07/04 04:55:58;;;;;;;11.65;5.47;;;14.50;99.90;;;;;;5052558;28;20139;-77
2022/07/04 04:58:25;;;;;;;10.68;6.47;;;14.80;99.90;;;;;;5035075;28;20510;-77
2022/07/04 05:00:51;;;;;;;10.88;5.70;;;14.90;99.90;;;;;;5034457;28;20045;-78
2022/07/04 05:03:17;;;;;;;9.52;5.43;;;15.00;99.90;;;;;;5018118;28;20048;-77
2022/07/04 05:05:43;;;;;;;8.15;5.78;;;15.00;99.90;;;;;;5034534;28;20037;-78
2022/07/04 05:08:09;;;;;;;15.57;5.53;;;15.00;99.90;;;;;;5034401;28;20087;-76
2022/07/04 05:10:35;;;;;;;9.90;5.18;;;15.10;99.90;;;;;;5034358;28;20037;-77
2022/07/04 05:13:03;;;;;;;6.60;4.55;;;15.10;99.90;;;;;;5052161;28;20041;-77
2022/07/04 05:15:28;;;;;;;7.85;5.35;;;15.40;99.90;;;;;;5034620;28;20045;-77
2022/07/04 05:17:54;;;;;;;9.27;5.07;;;15.80;99.90;;;;;;5034398;28;20510;-77
2022/07/04 05:20:19;;;;;;;10.15;4.93;;;16.40;99.90;;;;;;5034124;28;20545;-76
2022/07/04 05:22:45;;;;;;;6.63;4.53;;;16.90;99.90;;;;;;5034202;28;20143;-75
2022/07/04 05:25:11;;;;;;;8.07;4.82;;;17.30;99.90;;;;;;5033711;28;20044;-75
2022/07/04 05:27:37;;;;;;;11.07;4.50;;;17.70;99.90;;;;;;5033764;28;20048;-76
2022/07/04 05:30:03;;;;;;;10.68;4.60;;;18.10;99.90;;;;;;5032717;28;20036;-75
2022/07/04 05:32:29;;;;;;;10.55;4.90;;;18.40;99.90;;;;;;5034013;28;20587;-75
2022/07/04 05:34:54;;;;;;;7.18;3.67;;;18.70;99.90;;;;;;5034080;28;20118;-76
2022/07/04 05:37:20;;;;;;;5.18;3.88;;;18.90;99.90;;;;;;5037021;28;20061;-76
2022/07/04 05:39:46;;;;;;;6.88;3.92;;;19.10;99.90;;;;;;5048995;28;20059;-76
2022/07/04 05:42:12;;;;;;;6.28;3.58;;;19.20;99.90;;;;;;5031826;28;20044;-75
2022/07/04 05:44:38;;;;;;;8.95;3.50;;;19.50;99.90;;;;;;5038098;28;20084;-77
2022/07/04 05:47:04;;;;;;;7.90;3.55;;;20.00;99.90;;;;;;5032230;28;20076;-78
2022/07/04 05:49:29;;;;;;;10.18;4.50;;;20.20;99.90;;;;;;5032495;28;20041;-78
2022/07/04 05:51:55;;;;;;;8.23;3.67;;;20.50;99.90;;;;;;5033369;28;20092;-78
2022/07/04 05:54:20;;;;;;;6.35;3.38;;;20.60;99.90;;;;;;5033266;28;20036;-77
2022/07/04 05:56:46;;;;;;;5.72;3.75;;;20.80;99.90;;;;;;5032975;28;20087;-78
2022/07/04 05:59:12;;;;;;;6.15;3.40;;;20.90;99.90;;;;;;5051140;28;20025;-78
2022/07/04 06:01:37;;;;;;;7.40;3.38;;;21.00;99.90;;;;;;5032958;28;20063;-77
2022/07/04 06:04:04;;;;;;;6.78;3.30;;;20.90;99.90;;;;;;5033024;28;20033;-78
2022/07/04 06:06:30;;;;;;;6.20;3.65;;;21.00;99.90;;;;;;5032929;28;20041;-78
2022/07/04 06:08:56;;;;;;;9.93;4.07;;;21.20;99.90;;;;;;5033387;28;20115;-79
2022/07/04 06:11:22;;;;;;;6.47;3.65;;;21.40;99.90;;;;;;5033370;28;20056;-78
2022/07/04 06:13:49;;;;;;;9.90;3.90;;;21.60;99.90;;;;;;5033004;28;20063;-78
2022/07/04 06:16:15;;;;;;;8.68;3.30;;;21.70;99.90;;;;;;5033101;28;20052;-78
2022/07/04 06:18:41;;;;;;;6.20;3.83;;;21.90;99.90;;;;;;5033072;28;20045;-78
2022/07/04 06:21:07;;;;;;;7.35;3.97;;;21.90;99.90;;;;;;5032789;28;20127;-78
2022/07/04 06:23:33;;;;;;;6.93;3.65;;;22.00;99.90;;;;;;5033041;28;20128;-76
2022/07/04 06:25:58;;;;;;;6.22;3.55;;;22.10;99.90;;;;;;5032691;28;20079;-76
2022/07/04 06:28:24;;;;;;;6.80;3.63;;;22.20;99.90;;;;;;5032737;28;20037;-77
2022/07/04 06:30:50;;;;;;;5.65;3.40;;;22.40;99.90;;;;;;5032559;28;20052;-76
2022/07/04 06:33:15;;;;;;;8.23;4.20;;;22.50;99.90;;;;;;5032713;28;20040;-76
2022/07/04 06:35:56;;;;;;;7.47;3.50;;;22.20;99.90;;;;;;5032445;28;20484;-75
2022/07/04 06:38:27;;;;;;;6.07;3.50;;;21.80;99.90;;;;;;5032534;28;20041;-78
2022/07/04 06:40:55;;;;;;;6.75;3.28;;;21.60;99.90;;;;;;5032516;28;20436;-77
2022/07/04 06:43:22;;;;;;;9.60;5.85;;;21.70;99.90;;;;;;5034847;28;20447;-77
2022/07/04 06:45:48;;;;;;;8.25;3.25;;;22.00;99.90;;;;;;5036827;28;20073;-78
2022/07/04 06:48:13;;;;;;;6.78;3.42;;;22.10;99.90;;;;;;5054624;28;20065;-77
2022/07/04 06:50:39;;;;;;;9.82;3.42;;;22.40;99.90;;;;;;5036660;28;20467;-77
2022/07/04 06:53:07;;;;;;;5.90;3.10;;;22.40;99.90;;;;;;5037419;28;20540;-77
2022/07/04 06:55:33;;;;;;;8.52;3.80;;;22.10;99.90;;;;;;5036108;28;20550;-77
2022/07/04 06:57:58;;;;;;;6.50;3.58;;;22.00;99.90;;;;;;5054049;28;20052;-76
2022/07/04 07:00:24;;;;;;;5.53;2.58;;;22.30;99.90;;;;;;5035781;28;20037;-78
2022/07/04 07:02:50;;;;;;;7.90;3.33;;;22.50;99.90;;;;;;5036739;28;20045;-78
2022/07/04 07:05:16;;;;;;;7.40;2.95;;;22.60;99.90;;;;;;5036397;28;20570;-77
2022/07/04 07:07:41;;;;;;;8.20;3.80;;;22.80;99.90;;;;;;5036113;28;20048;-77
2022/07/04 07:10:07;;;;;;;8.35;2.80;;;22.90;99.90;;;;;;5036307;28;20116;-77
2022/07/04 07:12:34;;;;;;;6.05;3.47;;;23.00;99.90;;;;;;5036253;28;20037;-78
2022/07/04 07:15:01;;;;;;;10.98;3.42;;;23.20;99.90;;;;;;5036265;28;20049;-78
2022/07/04 07:17:27;;;;;;;13.27;3.90;;;23.30;99.90;;;;;;5036049;28;20052;-75
2022/07/04 07:19:53;;;;;;;11.02;3.83;;;23.50;99.90;;;;;;5035362;28;20098;-76
2022/07/04 07:22:19;;;;;;;6.88;2.90;;;23.70;99.90;;;;;;5036157;28;20040;-76
2022/07/04 07:24:45;;;;;;;6.78;3.28;;;23.80;99.90;;;;;;5036132;28;20432;-76
2022/07/04 07:27:11;;;;;;;8.38;3.35;;;23.90;99.90;;;;;;5035796;28;20175;-77
2022/07/04 07:29:37;;;;;;;8.55;4.35;;;24.00;99.90;;;;;;5035495;28;20064;-76
2022/07/04 07:32:04;;;;;;;7.30;3.00;;;24.20;99.90;;;;;;5035863;28;20043;-78
2022/07/04 07:34:30;;;;;;;7.57;2.92;;;24.10;99.90;;;;;;5037228;28;20051;-78
2022/07/04 07:36:56;;;;;;;7.85;2.85;;;24.00;99.90;;;;;;5036971;28;20045;-78
2022/07/04 07:39:21;;;;;;;9.20;3.60;;;23.90;99.90;;;;;;5036723;28;20103;-78
2022/07/04 07:41:47;;;;;;;7.47;3.22;;;24.20;99.90;;;;;;5037015;28;20037;-79
2022/07/04 07:44:13;;;;;;;11.52;3.30;;;24.40;99.90;;;;;;5020539;28;20094;-78
2022/07/04 07:46:39;;;;;;;7.47;3.03;;;24.60;99.90;;;;;;5036685;28;20045;-78
2022/07/04 07:49:04;;;;;;;6.97;2.60;;;24.50;99.90;;;;;;5036062;28;20124;-79
2022/07/04 07:51:30;;;;;;;7.85;3.00;;;24.60;99.90;;;;;;5036143;28;20076;-78
2022/07/04 07:53:56;;;;;;;8.35;3.03;;;24.60;99.90;;;;;;5035621;28;20403;-78
2022/07/04 07:56:22;;;;;;;8.20;2.67;;;24.60;99.90;;;;;;5019651;28;20521;-78
2022/07/04 07:58:48;;;;;;;8.07;2.58;;;24.20;99.90;;;;;;5036117;28;20434;-78
2022/07/04 08:01:14;;;;;;;7.15;2.53;;;23.90;99.90;;;;;;5053291;28;20435;-78
2022/07/04 08:06:24;;;;;;;8.07;2.70;;;23.90;99.90;;;;;;5035217;28;20477;-78
2022/07/04 08:08:50;;;;;;;4.60;2.10;;;23.60;99.90;;;;;;5035567;28;20067;-78
2022/07/04 08:11:16;;;;;;;9.35;2.33;;;23.50;99.90;;;;;;5018219;28;20040;-78
2022/07/04 08:13:42;;;;;;;7.70;2.88;;;23.10;99.90;;;;;;5035235;28;20546;-78
2022/07/04 08:16:08;;;;;;;5.30;2.00;;;22.90;99.90;;;;;;5035402;28;20051;-78
2022/07/04 08:18:34;;;;;;;8.00;2.40;;;22.70;99.90;;;;;;5019170;28;20051;-77
2022/07/04 08:21:00;;;;;;;6.97;2.45;;;22.40;99.90;;;;;;5052443;28;20033;-77
2022/07/04 08:23:26;;;;;;;6.72;2.15;;;22.10;99.90;;;;;;5034893;28;20037;-78
2022/07/04 08:25:52;;;;;;;6.15;2.15;;;21.80;99.90;;;;;;5052265;28;20049;-77
2022/07/04 08:28:18;;;;;;;7.35;1.95;;;21.70;99.90;;;;;;5035346;28;20483;-78
2022/07/04 08:30:43;;;;;;;5.40;1.80;;;21.60;99.90;;;;;;5053332;28;20120;-78
2022/07/04 08:33:09;;;;;;;4.97;1.60;;;21.50;99.90;;;;;;5018089;28;20124;-78
2022/07/04 08:35:35;;;;;;;7.25;2.17;;;21.30;99.90;;;;;;5017963;28;20072;-77
2022/07/04 08:38:01;;;;;;;5.72;2.10;;;21.50;99.90;;;;;;5035104;28;20127;-77
2022/07/04 08:40:29;;;;;;;5.55;1.80;;;21.90;99.90;;;;;;5034072;28;20489;-77
2022/07/04 08:42:55;;;;;;;5.63;1.80;;;22.20;99.90;;;;;;5034094;28;20032;-78
2022/07/04 08:45:29;;;;;;;7.47;2.00;;;22.60;99.90;;;;;;5034076;28;20044;-77
2022/07/04 08:48:01;;;;;;;4.05;1.50;;;22.90;99.90;;;;;;5033905;28;20067;-78
2022/07/04 08:50:30;;;;;;;6.10;1.85;;;23.20;99.90;;;;;;5034117;28;20039;-78
2022/07/04 08:53:09;;;;;;;10.60;1.70;;;23.30;99.90;;;;;;5034210;28;20076;-77
2022/07/04 08:58:26;;;;;;;4.65;1.60;;;23.60;99.90;;;;;;5033987;28;20086;-77
2022/07/04 09:01:14;;;;;;;3.80;1.60;;;23.60;99.90;;;;;;5033367;28;20049;-78
2022/07/04 09:03:42;;;;;;;6.55;1.48;;;23.80;99.90;;;;;;5034332;28;20751;-77
2022/07/04 09:06:08;;;;;;;3.10;1.40;;;24.00;99.90;;;;;;5050625;28;20048;-78
2022/07/04 09:08:34;;;;;;;6.28;1.52;;;24.20;99.90;;;;;;5051773;28;20044;-78
2022/07/04 09:11:01;;;;;;;4.25;1.30;;;24.30;99.90;;;;;;5017000;28;20036;-78
2022/07/04 09:13:27;;;;;;;4.05;1.20;;;24.50;99.90;;;;;;5034412;28;20210;-78
2022/07/04 09:15:52;;;;;;;4.22;1.63;;;24.80;99.90;;;;;;5033631;28;20083;-77
2022/07/04 09:18:36;;;;;;;7.60;2.90;;;24.70;99.90;;;;;;5033862;28;20040;-76
2022/07/04 09:21:09;;;;;;;3.72;1.33;;;24.40;99.90;;;;;;5033387;28;20041;-78
2022/07/04 09:23:39;;;;;;;5.55;1.38;;;23.70;99.90;;;;;;5017659;28;20037;-78
2022/07/04 09:26:13;;;;;;;5.50;1.20;;;23.30;99.90;;;;;;5017649;28;20049;-78
2022/07/04 09:28:41;;;;;;;5.45;1.38;;;22.80;99.90;;;;;;5034499;28;20049;-78
2022/07/04 09:31:22;;;;;;;2.63;1.25;;;22.60;99.90;;;;;;5033618;28;20044;-79
2022/07/04 09:33:51;;;;;;;3.28;1.23;;;22.70;99.90;;;;;;5017689;28;20036;-79
2022/07/04 09:36:22;;;;;;;7.00;1.35;;;22.90;99.90;;;;;;5033786;28;20512;-78
2022/07/04 09:39:12;;;;;;;7.00;1.20;;;23.30;99.90;;;;;;5051665;28;20051;-78
2022/07/04 09:41:58;;;;;;;3.92;1.40;;;23.70;99.90;;;;;;5033887;28;20048;-78
2022/07/04 09:44:28;;;;;;;4.38;1.60;;;23.70;99.90;;;;;;5033888;28;20048;-78
2022/07/04 09:46:54;;;;;;;4.18;1.38;;;23.60;99.90;;;;;;5033746;28;20557;-78
2022/07/04 09:49:20;;;;;;;2.35;1.08;;;23.40;99.90;;;;;;5049427;28;20483;-77
2022/07/04 09:51:51;;;;;;;2.08;1.20;;;23.40;99.90;;;;;;5070967;28;20063;-78
2022/07/04 09:54:27;;;;;;;3.92;1.10;;;23.40;99.90;;;;;;5056106;28;20037;-77
2022/07/04 09:56:55;;;;;;;4.40;1.05;;;23.60;99.90;;;;;;5033075;28;20567;-78
2022/07/04 09:59:22;;;;;;;3.00;1.00;;;23.80;99.90;;;;;;5033230;28;20078;-78
2022/07/04 10:01:48;;;;;;;3.50;1.05;;;24.00;99.90;;;;;;5051049;28;20041;-78
2022/07/04 10:04:14;;;;;;;3.60;1.30;;;24.20;99.30;;;;;;5033802;28;20025;-79
2022/07/04 10:06:41;;;;;;;3.47;1.38;;;24.40;98.70;;;;;;5017073;28;20069;-78
2022/07/04 10:09:16;;;;;;;5.82;1.20;;;24.70;99.20;;;;;;5051371;28;20064;-79
2022/07/04 10:11:43;;;;;;;3.33;1.00;;;25.10;99.80;;;;;;5033080;28;20184;-78
2022/07/04 10:14:11;;;;;;;5.30;1.20;;;25.20;98.40;;;;;;5033080;28;20049;-79
2022/07/04 10:16:38;;;;;;;1.83;0.88;;;25.40;98.20;;;;;;5033080;28;20041;-78
2022/07/04 10:19:05;;;;;;;1.80;1.10;;;25.30;96.80;;;;;;5051412;28;20033;-78
2022/07/04 10:21:31;;;;;;;3.33;1.00;;;25.20;96.20;;;;;;5032974;28;20048;-79
2022/07/04 10:23:57;;;;;;;5.25;0.75;;;25.20;96.00;;;;;;5017107;28;20087;-78
2022/07/04 10:26:23;;;;;;;0.70;0.60;;;25.40;93.40;;;;;;5016473;28;20080;-77
2022/07/04 10:28:51;;;;;;;3.08;0.65;;;25.30;88.80;;;;;;5032979;28;20041;-78
2022/07/04 10:31:19;;;;;;;2.95;0.90;;;25.20;84.20;;;;;;5032823;28;20052;-79
2022/07/04 10:33:45;;;;;;;2.78;0.70;;;25.00;82.70;;;;;;5033312;28;20119;-79
2022/07/04 10:36:18;;;;;;;2.47;0.60;;;25.00;81.60;;;;;;5033166;28;20524;-79
2022/07/04 10:38:52;;;;;;;1.20;0.60;;;25.00;77.70;;;;;;5016939;28;20083;-78
2022/07/04 10:41:21;;;;;;;1.40;0.65;;;25.00;70.10;;;;;;5032876;28;20094;-78
2022/07/04 10:44:02;;;;;;;1.13;0.50;;;25.00;73.60;;;;;;5033074;28;20565;-79
2022/07/04 10:46:36;;;;;;;2.05;0.60;;;24.90;76.80;;;;;;5032860;28;20080;-79
2022/07/04 10:49:17;;;;;;;4.55;0.93;;;25.00;78.10;;;;;;5016749;28;20079;-79
2022/07/04 10:51:47;;;;;;;3.45;0.82;;;24.90;73.20;;;;;;5016051;28;20060;-78
2022/07/04 10:54:17;;;;;;;4.72;0.77;;;24.70;76.10;;;;;;5032843;28;20311;-78
2022/07/04 10:56:45;;;;;;;1.30;0.90;;;24.50;76.10;;;;;;5016113;28;20037;-77
2022/07/04 10:59:15;;;;;;;1.88;0.77;;;24.30;76.00;;;;;;5032497;28;20088;-78
2022/07/04 11:01:53;;;;;;;2.53;0.68;;;24.20;77.40;;;;;;5032057;28;20068;-78
2022/07/04 11:04:56;;;;;;;3.60;0.80;;;24.30;77.30;;;;;;5031978;28;20033;-77
2022/07/04 11:07:37;;;;;;;2.78;0.80;;;24.50;81.50;;;;;;5031766;28;20053;-79
2022/07/04 11:12:53;;;;;;;2.20;1.02;;;24.90;82.70;;;;;;5050278;28;20082;-78
2022/07/04 11:15:24;;;;;;;;;;;25.10;80.00;;;;;;5032922;28;20375;-78
2022/07/04 11:17:51;;;;;;;2.78;1.05;;;25.30;87.20;;;;;;5032464;28;19956;-78
2022/07/04 11:20:18;;;;;;;1.35;0.70;;;25.30;79.20;;;;;;5032146;28;20404;-79
2022/07/04 11:22:43;;;;;;;1.67;0.90;;;25.30;78.60;;;;;;5033152;28;20051;-79
2022/07/04 11:25:11;;;;;;;0.80;0.60;;;25.10;75.00;;;;;;5032706;28;20049;-78
2022/07/04 11:27:37;;;;;;;1.20;1.02;;;24.90;74.50;;;;;;5032528;28;20044;-79
2022/07/04 11:30:03;;;;;;;2.58;0.57;;;24.60;73.50;;;;;;5035707;28;20064;-78
2022/07/04 11:32:34;;;;;;;2.35;0.70;;;24.20;74.10;;;;;;5036254;28;20052;-77
2022/07/04 11:35:01;;;;;;;3.15;0.75;;;24.10;78.20;;;;;;5036287;28;20124;-78
2022/07/04 11:37:27;;;;;;;2.05;0.70;;;24.30;77.40;;;;;;5035849;28;20079;-77
2022/07/04 11:45:23;;;;;;;2.05;0.85;;;24.60;75.60;;;;;;5035702;28;20139;-77
2022/07/04 11:47:49;;;;;;;3.58;1.30;;;24.50;76.00;;;;;;5035772;28;20132;-77
2022/07/04 11:50:19;;;;;;;4.25;1.15;;;24.60;77.80;;;;;;5035604;28;20047;-78
2022/07/04 11:52:48;;;;;;;1.93;0.90;;;24.70;79.60;;;;;;5035751;28;20127;-77
2022/07/04 11:55:16;;;;;;;4.03;2.00;;;24.80;79.40;;;;;;5035629;28;20642;-78
2022/07/04 11:57:51;;;;;;;3.33;1.08;;;24.90;77.60;;;;;;5035725;28;20114;-77
2022/07/04 12:00:19;;;;;;;4.43;1.17;;;24.70;75.20;;;;;;5035255;28;20123;-77
2022/07/04 12:02:47;;;;;;;5.22;1.02;;;24.80;73.50;;;;;;5035559;28;20049;-77
2022/07/04 12:05:14;;;;;;;2.85;0.80;;;24.70;73.60;;;;;;5019557;28;20084;-79
2022/07/04 12:07:41;;;;;;;4.53;0.85;;;24.50;74.90;;;;;;5019202;28;20590;-79
2022/07/04 12:10:15;;;;;;;2.35;1.02;;;24.50;79.10;;;;;;5035569;28;20033;-77
2022/07/04 12:12:59;;;;;;;3.75;0.90;;;24.60;77.00;;;;;;5035200;28;20072;-78
2022/07/04 12:15:35;;;;;;;1.88;0.80;;;24.50;78.40;;;;;;5052961;28;20095;-77
2022/07/04 12:18:01;;;;;;;1.05;0.90;;;24.30;78.90;;;;;;5034720;28;20049;-78
2022/07/04 12:20:26;;;;;;;2.15;0.75;;;24.20;79.20;;;;;;5034454;28;20352;-77
2022/07/04 12:23:02;;;;;;;2.78;1.00;;;24.00;78.20;;;;;;5052792;28;20036;-78
2022/07/04 12:25:31;;;;;;;3.85;0.88;;;24.00;80.90;;;;;;5052641;28;20052;-77
2022/07/04 12:28:02;;;;;;;2.58;0.80;;;23.90;78.30;;;;;;5053286;28;20442;-80
2022/07/04 12:30:32;;;;;;;2.15;0.93;;;24.00;81.70;;;;;;5017985;28;20033;-80
2022/07/04 12:33:03;;;;;;;3.22;0.90;;;24.20;82.70;;;;;;5034719;28;20197;-77
2022/07/04 12:35:32;;;;;;;3.15;0.73;;;24.50;82.40;;;;;;5034795;28;20060;-78
2022/07/04 12:38:05;;;;;;;5.07;0.80;;;24.50;77.80;;;;;;5034386;28;20047;-76
2022/07/04 12:40:31;;;;;;;2.90;0.70;;;24.50;77.60;;;;;;5034435;28;20088;-78
2022/07/04 12:42:58;;;;;;;3.88;0.80;;;24.50;78.60;;;;;;5034704;28;20048;-77
2022/07/04 12:45:24;;;;;;;1.88;0.70;;;24.30;77.70;;;;;;5034526;28;20091;-81
2022/07/04 12:47:50;;;;;;;2.15;0.95;;;24.30;76.40;;;;;;5017591;28;20055;-79
2022/07/04 12:50:26;;;;;;;2.88;0.57;;;24.20;76.20;;;;;;5035040;28;20037;-79
2022/07/04 12:52:52;;;;;;;2.38;0.60;;;24.30;74.60;;;;;;5018303;28;20396;-77
2022/07/04 12:55:17;;;;;;;1.95;0.60;;;24.10;77.00;;;;;;5052293;28;20037;-78
2022/07/04 12:57:43;;;;;;;0.70;0.57;;;24.20;73.80;;;;;;5052062;28;20496;-77
2022/07/04 13:00:09;;;;;;;2.75;0.73;;;24.20;73.70;;;;;;5052618;28;20492;-77
2022/07/04 13:02:35;;;;;;;2.97;0.95;;;24.20;71.40;;;;;;5034570;28;20041;-77
2022/07/04 13:05:00;;;;;;;3.15;1.05;;;24.00;72.70;;;;;;5052485;28;20090;-79
2022/07/04 13:07:26;;;;;;;3.25;0.80;;;24.10;72.40;;;;;;5034216;28;20127;-79